createdAt,value
2019-05-23T00:01:22.365Z,9.95
2019-05-23T00:04:12.058Z,10.55
2019-05-23T00:06:45.543Z,10.60
2019-05-23T00:09:17.060Z,9.15
2019-05-23T00:11:50.391Z,8.38
2019-05-23T00:14:34.430Z,8.30
2019-05-23T00:17:07.743Z,9.55
2019-05-23T00:19:40.030Z,7.20
2019-05-23T00:22:13.177Z,7.70
2019-05-23T00:24:44.690Z,8.13
2019-05-23T00:27:18.050Z,7.20
2019-05-23T00:29:50.483Z,8.58
2019-05-23T00:32:35.690Z,8.03
2019-05-23T00:35:12.879Z,6.20
2019-05-23T00:40:17.334Z,8.63
2019-05-23T00:42:49.290Z,7.70
2019-05-23T00:45:23.252Z,7.25
2019-05-23T00:47:55.202Z,7.15
2019-05-23T00:50:27.590Z,6.87
2019-05-23T00:52:59.729Z,7.70
2019-05-23T00:55:31.715Z,7.50
2019-05-23T00:58:04.681Z,8.03
2019-05-23T01:00:36.079Z,6.83
2019-05-23T01:03:08.276Z,6.25
2019-05-23T01:05:39.781Z,6.85
2019-05-23T01:08:14.565Z,6.65
2019-05-23T01:10:46.772Z,6.17
2019-05-23T01:13:18.057Z,4.78
2019-05-23T01:15:50.580Z,5.70
2019-05-23T01:18:22.261Z,5.28
2019-05-23T01:21:01.176Z,5.70
2019-05-23T01:23:34.006Z,5.92
2019-05-23T01:26:06.259Z,5.50
2019-05-23T01:28:38.706Z,6.35
2019-05-23T01:31:14.436Z,6.83
2019-05-23T01:33:47.001Z,5.78
2019-05-23T01:36:19.297Z,6.28
2019-05-23T01:38:50.867Z,5.60
2019-05-23T01:41:23.983Z,5.47
2019-05-23T01:43:56.104Z,5.60
2019-05-23T01:46:28.597Z,5.97
2019-05-23T01:49:00.599Z,6.37
2019-05-23T01:51:32.435Z,6.28
2019-05-23T01:54:04.914Z,6.28
2019-05-23T01:56:37.188Z,6.28
2019-05-23T01:59:09.830Z,7.95
2019-05-23T02:01:42.221Z,8.13
2019-05-23T02:04:13.639Z,8.90
2019-05-23T02:06:45.364Z,6.97
2019-05-23T02:09:17.808Z,7.90
2019-05-23T02:11:50.503Z,6.12
2019-05-23T02:14:22.866Z,6.15
2019-05-23T02:16:55.055Z,6.45
2019-05-23T02:19:26.683Z,6.80
2019-05-23T02:21:58.490Z,7.10
2019-05-23T02:24:31.227Z,6.20
2019-05-23T02:27:03.563Z,5.83
2019-05-23T02:29:34.919Z,6.62
2019-05-23T02:32:07.364Z,6.95
2019-05-23T02:34:39.110Z,6.08
2019-05-23T02:37:28.115Z,6.83
2019-05-23T02:40:01.005Z,6.50
2019-05-23T02:42:36.641Z,7.05
2019-05-23T02:45:10.313Z,6.60
2019-05-23T02:47:43.499Z,6.78
2019-05-23T02:50:33.468Z,7.10
2019-05-23T02:53:06.466Z,7.12
2019-05-23T02:55:39.778Z,7.87
2019-05-23T02:58:17.077Z,6.90
2019-05-23T03:00:56.987Z,7.53
2019-05-23T03:03:29.969Z,6.78
2019-05-23T03:06:05.706Z,6.80
2019-05-23T03:08:38.711Z,7.25
2019-05-23T03:11:28.178Z,7.05
2019-05-23T03:14:01.329Z,6.53
2019-05-23T03:16:33.062Z,7.25
2019-05-23T03:19:20.196Z,7.50
2019-05-23T03:21:52.616Z,7.80
2019-05-23T03:24:25.563Z,7.35
2019-05-23T03:27:04.962Z,7.05
2019-05-23T03:29:37.311Z,6.67
2019-05-23T03:32:12.997Z,7.50
2019-05-23T03:34:46.335Z,6.40
2019-05-23T03:37:18.161Z,6.40
2019-05-23T03:39:50.743Z,6.72
2019-05-23T03:42:23.714Z,6.67
2019-05-23T03:44:56.104Z,7.40
2019-05-23T03:47:28.889Z,6.70
2019-05-23T03:50:01.683Z,7.17
2019-05-23T03:52:33.250Z,7.28
2019-05-23T03:55:05.211Z,5.97
2019-05-23T03:57:38.317Z,6.80
2019-05-23T04:00:15.344Z,6.50
2019-05-23T04:02:47.753Z,6.87
2019-05-23T04:05:20.278Z,7.78
2019-05-23T04:07:51.531Z,6.75
2019-05-23T04:10:23.126Z,6.25
2019-05-23T04:12:57.376Z,6.17
2019-05-23T04:15:30.239Z,6.20
2019-05-23T04:18:01.869Z,7.42
2019-05-23T04:20:34.253Z,6.62
2019-05-23T04:23:07.478Z,7.00
2019-05-23T04:25:39.341Z,6.97
2019-05-23T04:28:11.091Z,7.58
2019-05-23T04:30:42.943Z,6.90
2019-05-23T04:33:15.025Z,7.85
2019-05-23T04:35:46.858Z,7.60
2019-05-23T04:38:18.664Z,8.15
2019-05-23T04:40:50.376Z,8.00
2019-05-23T04:43:22.383Z,7.37
2019-05-23T04:45:54.272Z,6.42
2019-05-23T04:48:26.392Z,6.47
2019-05-23T04:51:00.078Z,7.60
2019-05-23T04:53:31.186Z,8.85
2019-05-23T04:56:02.629Z,7.92
2019-05-23T04:58:34.703Z,6.97
2019-05-23T05:01:06.511Z,7.33
2019-05-23T05:03:38.324Z,6.65
2019-05-23T05:06:10.174Z,7.80
2019-05-23T05:08:42.015Z,6.50
2019-05-23T05:11:13.835Z,6.58
2019-05-23T05:13:45.789Z,7.42
2019-05-23T05:16:17.797Z,6.85
2019-05-23T05:18:49.686Z,6.37
2019-05-23T05:21:21.238Z,6.35
2019-05-23T05:23:53.259Z,7.83
2019-05-23T05:26:25.632Z,8.30
2019-05-23T05:28:57.400Z,7.28
2019-05-23T05:31:29.235Z,9.05
2019-05-23T05:34:01.073Z,6.83
2019-05-23T05:36:32.546Z,8.00
2019-05-23T05:39:04.817Z,8.43
2019-05-23T05:41:36.927Z,8.43
2019-05-23T05:44:11.459Z,7.00
2019-05-23T05:46:41.402Z,7.08
2019-05-23T05:49:13.967Z,6.95
2019-05-23T05:51:45.950Z,7.28
2019-05-23T05:54:17.875Z,8.05
2019-05-23T05:56:49.502Z,6.92
2019-05-23T05:59:21.163Z,7.47
2019-05-23T06:01:53.702Z,6.90
2019-05-23T06:04:25.741Z,7.10
2019-05-23T06:06:58.437Z,8.18
2019-05-23T06:09:31.548Z,9.58
2019-05-23T06:12:03.470Z,8.68
2019-05-23T06:14:35.549Z,7.75
2019-05-23T06:17:08.447Z,9.05
2019-05-23T06:19:40.589Z,7.78
2019-05-23T06:22:13.272Z,7.20
2019-05-23T06:24:50.387Z,8.03
2019-05-23T06:27:19.024Z,7.15
2019-05-23T06:29:51.004Z,8.25
2019-05-23T06:32:23.769Z,7.20
2019-05-23T06:34:56.947Z,8.40
2019-05-23T06:37:33.858Z,7.12
2019-05-23T06:40:03.063Z,7.58
2019-05-23T06:42:34.927Z,7.53
2019-05-23T06:45:07.869Z,8.75
2019-05-23T06:47:40.804Z,6.72
2019-05-23T06:50:15.151Z,7.65
2019-05-23T06:52:46.642Z,7.62
2019-05-23T06:55:18.223Z,7.15
2019-05-23T06:57:49.996Z,6.90
2019-05-23T07:00:25.168Z,7.10
2019-05-23T07:02:57.006Z,8.00
2019-05-23T07:05:31.701Z,7.08
2019-05-23T07:08:03.655Z,7.80
2019-05-23T07:10:34.946Z,8.33
2019-05-23T07:13:06.622Z,7.90
2019-05-23T07:15:40.379Z,7.40
2019-05-23T07:18:11.916Z,6.85
2019-05-23T07:20:43.825Z,6.85
2019-05-23T07:23:15.195Z,7.85
2019-05-23T07:25:48.481Z,7.10
2019-05-23T07:28:19.608Z,6.90
2019-05-23T07:30:51.798Z,6.67
2019-05-23T07:33:23.509Z,8.60
2019-05-23T07:35:55.009Z,7.22
2019-05-23T07:38:27.229Z,7.30
2019-05-23T07:40:59.857Z,7.33
2019-05-23T07:43:31.281Z,6.72
2019-05-23T07:46:03.553Z,6.33
2019-05-23T07:48:35.551Z,7.17
2019-05-23T07:51:07.258Z,7.17
2019-05-23T07:53:46.096Z,7.03
2019-05-23T07:56:21.144Z,6.37
2019-05-23T07:58:52.312Z,6.53
2019-05-23T08:01:27.929Z,7.30
2019-05-23T08:03:59.352Z,6.87
2019-05-23T08:06:31.325Z,7.35
2019-05-23T08:09:02.963Z,6.05
2019-05-23T08:11:34.816Z,6.83
2019-05-23T08:14:10.206Z,5.83
2019-05-23T08:16:56.615Z,6.65
2019-05-23T08:19:28.637Z,6.45
2019-05-23T08:22:00.379Z,5.58
2019-05-23T08:24:35.234Z,6.10
2019-05-23T08:27:07.663Z,6.12
2019-05-23T08:29:39.440Z,6.00
2019-05-23T08:32:18.062Z,7.50
2019-05-23T08:34:51.433Z,6.28
2019-05-23T08:37:22.150Z,6.28
2019-05-23T08:39:53.594Z,7.53
2019-05-23T08:42:28.798Z,8.38
2019-05-23T08:45:00.244Z,8.60
2019-05-23T08:47:32.023Z,8.95
2019-05-23T08:50:03.810Z,8.80
2019-05-23T08:52:35.546Z,8.33
2019-05-23T08:55:09.683Z,6.83
2019-05-23T08:57:41.430Z,5.65
2019-05-23T09:00:13.830Z,5.67
2019-05-23T09:02:45.518Z,7.85
2019-05-23T09:05:18.434Z,5.78
2019-05-23T09:07:50.391Z,6.37
2019-05-23T09:10:22.564Z,5.05
2019-05-23T09:12:54.351Z,5.35
2019-05-23T09:15:31.535Z,6.00
2019-05-23T09:18:04.151Z,5.10
2019-05-23T09:20:35.879Z,5.58
2019-05-23T09:23:07.519Z,5.62
2019-05-23T09:25:39.112Z,5.22
2019-05-23T09:28:11.379Z,5.25
2019-05-23T09:30:43.104Z,6.97
2019-05-23T09:33:15.402Z,5.58
2019-05-23T09:35:48.047Z,5.47
2019-05-23T09:38:19.679Z,5.12
2019-05-23T09:40:51.575Z,4.45
2019-05-23T09:43:23.576Z,4.40
2019-05-23T09:45:55.171Z,5.03
2019-05-23T09:48:26.928Z,4.30
2019-05-23T09:50:58.819Z,5.17
2019-05-23T09:53:30.718Z,5.78
2019-05-23T09:56:02.612Z,6.30
2019-05-23T09:58:34.316Z,5.55
2019-05-23T10:01:06.311Z,6.87
2019-05-23T10:03:37.928Z,5.42
2019-05-23T10:06:09.915Z,6.05
2019-05-23T10:08:41.501Z,6.30
2019-05-23T10:11:13.574Z,7.62
2019-05-23T10:13:44.842Z,6.83
2019-05-23T10:16:16.967Z,6.87
2019-05-23T10:18:48.949Z,7.28
2019-05-23T10:21:21.080Z,5.92
2019-05-23T10:23:52.673Z,5.60
2019-05-23T10:26:25.014Z,5.70
2019-05-23T10:28:56.886Z,5.95
2019-05-23T10:31:28.866Z,4.70
2019-05-23T10:34:00.446Z,4.60
2019-05-23T10:36:32.192Z,3.75
2019-05-23T10:39:03.931Z,4.70
2019-05-23T10:41:35.423Z,3.25
2019-05-23T10:44:08.117Z,4.80
2019-05-23T10:46:40.170Z,5.60
2019-05-23T10:49:12.059Z,5.87
2019-05-23T10:51:43.585Z,8.43
2019-05-23T10:54:15.521Z,7.22
2019-05-23T10:56:47.278Z,4.12
2019-05-23T10:59:18.743Z,4.15
2019-05-23T11:01:50.721Z,5.00
2019-05-23T11:04:22.362Z,4.03
2019-05-23T11:06:54.135Z,5.53
2019-05-23T11:09:37.502Z,4.90
2019-05-23T11:11:59.109Z,5.00
2019-05-23T11:14:31.150Z,4.62
2019-05-23T11:17:03.243Z,3.62
2019-05-23T11:19:35.749Z,4.58
2019-05-23T11:22:08.997Z,4.12
2019-05-23T11:24:40.944Z,4.78
2019-05-23T11:27:12.708Z,4.37
2019-05-23T11:29:44.274Z,4.95
2019-05-23T11:32:20.001Z,5.30
2019-05-23T11:34:50.018Z,5.30
2019-05-23T11:37:22.314Z,4.75
2019-05-23T11:39:53.825Z,3.42
2019-05-23T11:42:25.955Z,3.75
2019-05-23T11:44:57.486Z,5.28
2019-05-23T11:47:31.946Z,3.98
2019-05-23T11:50:02.373Z,5.17
2019-05-23T11:52:34.342Z,4.85
2019-05-23T11:55:07.330Z,4.08
2019-05-23T11:57:39.464Z,4.53
2019-05-23T12:00:12.240Z,3.77
2019-05-23T12:02:45.454Z,2.95
2019-05-23T12:05:18.796Z,3.40
2019-05-23T12:07:50.857Z,3.10
2019-05-23T12:10:22.851Z,4.40
2019-05-23T12:12:54.924Z,3.45
2019-05-23T12:15:31.022Z,3.55
2019-05-23T12:18:03.149Z,4.07
2019-05-23T12:20:35.042Z,2.87
2019-05-23T12:23:10.776Z,2.10
2019-05-23T12:25:39.693Z,2.65
2019-05-23T12:28:12.393Z,2.25
2019-05-23T12:30:44.034Z,2.30
2019-05-23T12:33:15.637Z,2.05
2019-05-23T12:35:48.688Z,2.92
2019-05-23T12:38:20.281Z,2.45
2019-05-23T12:40:52.136Z,2.90
2019-05-23T12:43:23.705Z,2.12
2019-05-23T12:45:55.796Z,2.50
2019-05-23T12:48:34.914Z,2.65
2019-05-23T12:51:08.370Z,2.77
2019-05-23T12:53:39.952Z,2.55
2019-05-23T12:56:11.988Z,2.92
2019-05-23T12:58:44.313Z,3.52
2019-05-23T13:01:17.470Z,2.55
2019-05-23T13:03:49.163Z,2.92
2019-05-23T13:06:21.089Z,2.83
2019-05-23T13:08:53.271Z,3.30
2019-05-23T13:11:25.343Z,2.50
2019-05-23T13:13:56.798Z,2.87
2019-05-23T13:16:28.668Z,2.80
2019-05-23T13:19:00.420Z,3.00
2019-05-23T13:21:34.563Z,2.65
2019-05-23T13:24:06.107Z,2.60
2019-05-23T13:26:37.548Z,3.30
2019-05-23T13:29:09.311Z,2.77
2019-05-23T13:31:41.377Z,3.58
2019-05-23T13:34:13.245Z,2.92
2019-05-23T13:36:44.962Z,2.67
2019-05-23T13:39:16.706Z,3.12
2019-05-23T13:41:48.324Z,2.80
2019-05-23T13:44:33.031Z,3.25
2019-05-23T13:46:53.078Z,3.00
2019-05-23T13:49:25.134Z,2.83
2019-05-23T13:51:57.289Z,2.65
2019-05-23T13:54:29.362Z,3.10
2019-05-23T13:57:01.698Z,3.15
2019-05-23T13:59:33.606Z,3.02
2019-05-23T14:02:06.679Z,3.33
2019-05-23T14:04:38.557Z,4.22
2019-05-23T14:07:11.962Z,3.40
2019-05-23T14:09:43.677Z,3.10
2019-05-23T14:12:22.915Z,3.77
2019-05-23T14:14:48.830Z,3.30
2019-05-23T14:17:38.871Z,3.95
2019-05-23T14:20:10.959Z,3.62
2019-05-23T14:22:44.426Z,3.92
2019-05-23T14:25:16.229Z,3.87
2019-05-23T14:27:55.230Z,3.72
2019-05-23T14:30:37.511Z,4.28
2019-05-23T14:33:11.023Z,3.83
2019-05-23T14:35:47.059Z,5.03
2019-05-23T14:38:30.374Z,4.05
2019-05-23T14:40:52.743Z,4.30
2019-05-23T14:43:31.722Z,4.62
2019-05-23T14:46:11.406Z,4.25
2019-05-23T14:49:00.268Z,4.47
2019-05-23T14:51:33.214Z,4.28
2019-05-23T14:54:23.142Z,4.55
2019-05-23T14:56:54.796Z,4.47
2019-05-23T14:59:26.819Z,5.30
2019-05-23T15:01:59.423Z,5.28
2019-05-23T15:04:31.500Z,4.95
2019-05-23T15:07:03.199Z,5.45
2019-05-23T15:09:35.190Z,5.47
2019-05-23T15:12:07.501Z,4.72
2019-05-23T15:14:39.503Z,4.83
2019-05-23T15:17:11.261Z,4.62
2019-05-23T15:19:45.293Z,4.87
2019-05-23T15:22:16.307Z,3.65
2019-05-23T15:24:48.538Z,3.83
2019-05-23T15:27:20.239Z,3.70
2019-05-23T15:29:52.235Z,3.90
2019-05-23T15:32:24.047Z,3.95
2019-05-23T15:34:56.071Z,4.12
2019-05-23T15:37:27.999Z,4.08
2019-05-23T15:39:59.870Z,4.35
2019-05-23T15:42:31.619Z,4.78
2019-05-23T15:45:03.789Z,6.00
2019-05-23T15:47:36.717Z,6.58
2019-05-23T15:50:11.849Z,6.70
2019-05-23T15:52:44.943Z,6.20
2019-05-23T15:55:18.406Z,6.65
2019-05-23T15:57:54.050Z,5.42
2019-05-23T16:00:42.315Z,6.35
2019-05-23T16:03:31.786Z,5.37
2019-05-23T16:06:05.436Z,5.65
2019-05-23T16:08:36.997Z,7.33
2019-05-23T16:11:08.690Z,6.62
2019-05-23T16:13:40.539Z,6.00
2019-05-23T16:16:12.428Z,6.65
2019-05-23T16:18:43.916Z,6.83
2019-05-23T16:21:16.273Z,7.30
2019-05-23T16:23:47.956Z,7.30
2019-05-23T16:26:22.191Z,6.55
2019-05-23T16:28:53.645Z,7.03
2019-05-23T16:31:25.460Z,9.03
2019-05-23T16:33:57.092Z,7.67
2019-05-23T16:36:29.123Z,8.98
2019-05-23T16:39:00.714Z,8.33
2019-05-23T16:41:32.555Z,7.08
2019-05-23T16:44:04.284Z,6.10
2019-05-23T16:46:36.037Z,8.20
2019-05-23T16:49:07.667Z,8.10
2019-05-23T16:51:39.474Z,7.50
2019-05-23T16:54:11.503Z,6.72
2019-05-23T16:56:44.664Z,6.62
2019-05-23T16:59:23.715Z,7.22
2019-05-23T17:02:08.872Z,7.72
2019-05-23T17:04:47.607Z,7.78
2019-05-23T17:07:36.342Z,6.75
2019-05-23T17:10:16.282Z,6.00
2019-05-23T17:12:52.302Z,5.95
2019-05-23T17:15:37.400Z,6.10
2019-05-23T17:18:26.110Z,6.58
2019-05-23T17:20:58.963Z,5.70
2019-05-23T17:23:50.460Z,4.92
2019-05-23T17:26:23.422Z,4.60
2019-05-23T17:28:56.949Z,4.53
2019-05-23T17:31:32.599Z,5.05
2019-05-23T17:34:04.729Z,4.95
2019-05-23T17:36:36.436Z,5.78
2019-05-23T17:39:10.323Z,5.90
2019-05-23T17:41:42.749Z,6.37
2019-05-23T17:44:14.591Z,6.55
2019-05-23T17:46:46.166Z,7.42
2019-05-23T17:49:18.038Z,7.10
2019-05-23T17:51:49.749Z,7.40
2019-05-23T17:54:21.659Z,7.70
2019-05-23T17:56:53.340Z,8.58
2019-05-23T17:59:25.357Z,8.10
2019-05-23T18:01:57.215Z,8.70
2019-05-23T18:04:29.726Z,8.88
2019-05-23T18:07:01.479Z,7.90
2019-05-23T18:09:34.086Z,7.62
2019-05-23T18:12:05.847Z,7.40
2019-05-23T18:14:38.380Z,6.47
2019-05-23T18:17:10.707Z,6.55
2019-05-23T18:19:42.739Z,6.37
2019-05-23T18:22:15.465Z,5.90
2019-05-23T18:24:47.588Z,6.10
2019-05-23T18:27:19.322Z,6.25
2019-05-23T18:29:53.437Z,7.10
2019-05-23T18:32:26.308Z,6.17
2019-05-23T18:34:58.240Z,5.58
2019-05-23T18:37:29.679Z,5.67
2019-05-23T18:40:01.378Z,6.78
2019-05-23T18:42:33.193Z,7.20
2019-05-23T18:45:06.575Z,7.10
2019-05-23T18:47:42.072Z,6.90
2019-05-23T18:50:14.711Z,8.08
2019-05-23T18:52:46.568Z,8.13
2019-05-23T18:55:18.654Z,8.25
2019-05-23T18:57:50.434Z,7.33
2019-05-23T19:00:24.470Z,6.75
2019-05-23T19:02:56.471Z,6.87
2019-05-23T19:05:28.952Z,8.03
2019-05-23T19:08:00.528Z,7.58
2019-05-23T19:10:32.372Z,6.95
2019-05-23T19:13:03.881Z,7.55
2019-05-23T19:15:35.838Z,7.95
2019-05-23T19:18:08.059Z,7.28
2019-05-23T19:20:40.635Z,7.70
2019-05-23T19:23:12.596Z,7.58
2019-05-23T19:25:44.941Z,7.30
2019-05-23T19:28:16.651Z,7.45
2019-05-23T19:30:49.152Z,7.37
2019-05-23T19:33:20.993Z,7.58
2019-05-23T19:35:53.044Z,7.58
2019-05-23T19:38:24.827Z,6.62
2019-05-23T19:40:57.084Z,8.05
2019-05-23T19:43:28.864Z,6.30
2019-05-23T19:46:00.783Z,7.12
2019-05-23T19:48:32.522Z,7.97
2019-05-23T19:51:05.302Z,7.40
2019-05-23T19:53:37.640Z,7.33
2019-05-23T19:56:10.135Z,7.90
2019-05-23T19:58:41.791Z,7.35
2019-05-23T20:01:13.670Z,7.00
2019-05-23T20:03:45.417Z,6.80
2019-05-23T20:06:17.953Z,7.42
2019-05-23T20:08:50.760Z,6.87
2019-05-23T20:11:22.698Z,7.72
2019-05-23T20:13:54.201Z,7.10
2019-05-23T20:16:25.770Z,7.85
2019-05-23T20:18:57.638Z,7.85
2019-05-23T20:21:29.551Z,8.60
2019-05-23T20:24:01.303Z,7.75
2019-05-23T20:26:32.952Z,6.70
2019-05-23T20:29:04.885Z,6.92
2019-05-23T20:31:36.936Z,6.22
2019-05-23T20:34:08.374Z,6.85
2019-05-23T20:36:40.141Z,7.53
2019-05-23T20:39:12.016Z,7.92
2019-05-23T20:41:43.806Z,7.10
2019-05-23T20:44:15.462Z,8.50
2019-05-23T20:46:47.437Z,6.70
2019-05-23T20:49:19.185Z,7.25
2019-05-23T20:51:51.368Z,7.30
2019-05-23T20:54:22.902Z,7.25
2019-05-23T20:56:54.609Z,8.48
2019-05-23T20:59:26.407Z,8.90
2019-05-23T21:01:58.263Z,9.55
2019-05-23T21:04:30.261Z,11.90
2019-05-23T21:07:01.802Z,11.20
2019-05-23T21:09:34.042Z,12.55
2019-05-23T21:12:05.728Z,14.07
2019-05-23T21:14:37.541Z,11.75
2019-05-23T21:17:09.495Z,12.15
2019-05-23T21:19:41.126Z,11.65
2019-05-23T21:22:12.742Z,12.18
2019-05-23T21:24:44.532Z,14.20
2019-05-23T21:27:16.176Z,12.50
2019-05-23T21:29:47.751Z,12.47
2019-05-23T21:32:19.572Z,11.12
2019-05-23T21:34:53.319Z,13.50
2019-05-23T21:37:25.098Z,10.55
2019-05-23T21:39:56.553Z,10.93
2019-05-23T21:42:28.375Z,11.70
2019-05-23T21:44:59.962Z,10.93
2019-05-23T21:47:31.777Z,11.20
2019-05-23T21:50:03.575Z,11.65
2019-05-23T21:52:35.424Z,10.45
2019-05-23T21:55:07.336Z,9.43
2019-05-23T21:57:38.777Z,11.48
2019-05-23T22:00:11.849Z,10.60
2019-05-23T22:02:43.431Z,11.63
2019-05-23T22:05:16.560Z,10.70
2019-05-23T22:07:48.685Z,11.30
2019-05-23T22:10:20.455Z,13.15
2019-05-23T22:13:04.033Z,12.35
2019-05-23T22:15:38.426Z,12.90
2019-05-23T22:18:10.064Z,15.05
2019-05-23T22:20:41.538Z,14.53
2019-05-23T22:23:13.336Z,15.08
2019-05-23T22:25:45.119Z,16.12
2019-05-23T22:28:17.172Z,16.75
2019-05-23T22:30:48.947Z,15.58
2019-05-23T22:33:22.140Z,14.87
2019-05-23T22:35:54.369Z,15.75
2019-05-23T22:38:26.147Z,16.90
2019-05-23T22:40:57.948Z,15.80
2019-05-23T22:43:29.658Z,14.80
2019-05-23T22:46:01.262Z,16.40
2019-05-23T22:48:32.834Z,17.45
2019-05-23T22:51:04.493Z,16.25
2019-05-23T22:53:36.115Z,14.85
2019-05-23T22:56:07.823Z,17.70
2019-05-23T22:58:39.608Z,16.52
2019-05-23T23:01:11.421Z,15.10
2019-05-23T23:03:43.435Z,15.85
2019-05-23T23:06:15.695Z,18.02
2019-05-23T23:08:47.822Z,16.80
2019-05-23T23:11:19.810Z,16.27
2019-05-23T23:13:51.803Z,17.50
2019-05-23T23:16:23.622Z,18.70
2019-05-23T23:18:55.422Z,17.15
2019-05-23T23:21:27.250Z,16.10
2019-05-23T23:23:59.126Z,16.70
2019-05-23T23:26:30.659Z,15.08
2019-05-23T23:29:02.234Z,14.83
2019-05-23T23:31:34.107Z,13.32
2019-05-23T23:34:05.764Z,16.55
2019-05-23T23:36:37.731Z,15.75
2019-05-23T23:39:09.370Z,15.45
2019-05-23T23:41:40.861Z,15.83
2019-05-23T23:44:13.041Z,15.85
2019-05-23T23:47:01.988Z,13.53
2019-05-23T23:49:51.522Z,12.93
2019-05-23T23:52:40.681Z,12.53
2019-05-23T23:55:31.065Z,12.68
2019-05-23T23:58:01.567Z,13.35
